Aviation Digital Data Service (ADDS)

Output produced by TAFs form (0418 UTC 29 January 2015)
found at http://aviationweather.gov/adds/tafs/
 
KDRO 282325Z 2900/2924 26012KT P6SM SCT200 
     FM290400 02003KT P6SM BKN200 
     FM291200 VRB02KT P6SM OVC200 
     FM291800 08005KT P6SM OVC200